Illesheim Air Base ETIK

Flugplatz Daten

Name: Illesheim Air Base

Ident: ETIK

Lat: 49,47389984

Long: 10,38809967

Platzhöhe: 1079 ft

IataCode:

City:

Metar

2022/08/15 17:56
ETIK 151756Z AUTO 26010KT 9999 FEW065 FEW120 23/12 A2974 RMK AO2 SLP058 T02280124 10278 20228 53014

Taf

2022/08/12 22:00
TAF ETIK 122200Z 1222/1404 10006KT 9999 FEW070 QNH3004INS
BECMG 1308/1309 07010G15KT 9999 SKC QNH3001INS
BECMG 1317/1318 07006KT 9999 SCT055 QNH2992INS
BECMG 1403/1404 07009KT 9999 BKN045 QNH2992INS TX29/1315Z TN13/1304Z LAST NO
AMDS AFT 1222 NEXT 1606
Gewünschte Webcam nicht vorhanden? Dann fügen Sie eine hinzu. Sie wird dann so schnell wie möglich freigeschaltet
Url: Title: